createdAt,value
2023-03-17T00:01:23.519Z,2.90
2023-03-17T00:03:50.465Z,2.55
2023-03-17T00:06:24.507Z,2.95
2023-03-17T00:08:51.314Z,3.28
2023-03-17T00:11:18.641Z,3.10
2023-03-17T00:13:46.231Z,3.20
2023-03-17T00:16:25.612Z,3.20
2023-03-17T00:18:53.856Z,3.05
2023-03-17T00:21:32.177Z,2.92
2023-03-17T00:24:00.027Z,3.17
2023-03-17T00:26:27.751Z,3.92
2023-03-17T00:28:55.041Z,3.42
2023-03-17T00:31:28.764Z,2.90
2023-03-17T00:33:58.356Z,3.42
2023-03-17T00:36:29.394Z,3.67
2023-03-17T00:38:57.178Z,3.30
2023-03-17T00:41:25.613Z,3.78
2023-03-17T00:43:52.467Z,3.47
2023-03-17T00:46:28.821Z,3.40
2023-03-17T00:48:57.804Z,3.60
2023-03-17T00:51:24.461Z,3.83
2023-03-17T00:53:51.725Z,3.58
2023-03-17T00:56:21.223Z,3.70
2023-03-17T00:58:48.874Z,3.30
2023-03-17T01:01:15.922Z,3.20
2023-03-17T01:03:42.708Z,3.38
2023-03-17T01:06:12.651Z,3.35
2023-03-17T01:08:40.605Z,3.92
2023-03-17T01:11:14.860Z,4.10
2023-03-17T01:13:41.663Z,3.70
2023-03-17T01:16:11.354Z,3.75
2023-03-17T01:18:38.481Z,3.47
2023-03-17T01:21:05.383Z,3.55
2023-03-17T01:23:32.623Z,3.50
2023-03-17T01:25:59.320Z,3.33
2023-03-17T01:28:26.063Z,3.20
2023-03-17T01:30:52.721Z,3.78
2023-03-17T01:33:19.398Z,3.47
2023-03-17T01:35:46.181Z,3.30
2023-03-17T01:38:15.072Z,4.05
2023-03-17T01:40:50.745Z,3.90
2023-03-17T01:43:22.629Z,3.70
2023-03-17T01:46:14.714Z,4.97
2023-03-17T01:48:43.154Z,3.73
2023-03-17T01:51:14.880Z,4.13
2023-03-17T01:53:43.308Z,3.53
2023-03-17T01:56:11.860Z,4.30
2023-03-17T01:58:40.114Z,3.80
2023-03-17T02:01:07.842Z,4.13
2023-03-17T02:03:34.727Z,4.15
2023-03-17T02:06:02.301Z,3.88
2023-03-17T02:08:29.245Z,3.88
2023-03-17T02:10:57.192Z,4.07
2023-03-17T02:13:24.301Z,4.03
2023-03-17T02:15:54.442Z,3.90
2023-03-17T02:18:23.545Z,3.83
2023-03-17T02:20:50.247Z,4.13
2023-03-17T02:23:23.037Z,3.95
2023-03-17T02:25:51.737Z,4.13
2023-03-17T02:28:27.769Z,4.13
2023-03-17T02:30:54.555Z,3.85
2023-03-17T02:33:21.382Z,3.72
2023-03-17T02:35:48.181Z,3.50
2023-03-17T02:38:17.304Z,3.83
2023-03-17T02:40:44.046Z,4.05
2023-03-17T02:43:10.926Z,3.88
2023-03-17T02:45:37.628Z,3.85
2023-03-17T02:48:05.915Z,3.92
2023-03-17T02:50:32.761Z,4.05
2023-03-17T02:52:59.476Z,3.97
2023-03-17T02:55:27.111Z,4.13
2023-03-17T02:57:53.796Z,4.22
2023-03-17T03:00:21.544Z,3.53
2023-03-17T03:02:48.376Z,4.40
2023-03-17T03:05:15.104Z,3.90
2023-03-17T03:07:42.314Z,4.72
2023-03-17T03:10:09.901Z,3.80
2023-03-17T03:12:36.670Z,3.25
2023-03-17T03:15:03.448Z,3.80
2023-03-17T03:17:30.156Z,3.58
2023-03-17T03:19:56.893Z,3.80
2023-03-17T03:22:23.564Z,3.72
2023-03-17T03:24:50.300Z,3.58
2023-03-17T03:27:17.059Z,4.20
2023-03-17T03:29:43.873Z,3.60
2023-03-17T03:32:11.122Z,3.95
2023-03-17T03:34:37.840Z,3.85
2023-03-17T03:37:05.908Z,3.88
2023-03-17T03:39:32.652Z,3.80
2023-03-17T03:41:59.435Z,3.30
2023-03-17T03:44:26.166Z,3.63
2023-03-17T03:46:52.890Z,3.90
2023-03-17T03:49:19.770Z,4.07
2023-03-17T03:51:46.457Z,3.67
2023-03-17T03:54:13.372Z,3.65
2023-03-17T03:56:40.070Z,3.60
2023-03-17T03:59:07.321Z,3.33
2023-03-17T04:01:34.027Z,4.65
2023-03-17T04:04:01.327Z,4.38
2023-03-17T04:06:28.100Z,3.90
2023-03-17T04:08:57.070Z,3.88
2023-03-17T04:11:24.921Z,4.20
2023-03-17T04:13:51.944Z,3.60
2023-03-17T04:16:18.683Z,3.72
2023-03-17T04:18:45.842Z,3.28
2023-03-17T04:21:13.524Z,3.85
2023-03-17T04:23:40.490Z,3.47
2023-03-17T04:26:07.332Z,4.25
2023-03-17T04:28:34.150Z,3.58
2023-03-17T04:31:01.443Z,3.85
2023-03-17T04:33:28.707Z,4.10
2023-03-17T04:35:55.891Z,3.72
2023-03-17T04:38:22.681Z,3.63
2023-03-17T04:40:51.007Z,3.83
2023-03-17T04:43:18.065Z,3.88
2023-03-17T04:45:44.893Z,3.45
2023-03-17T04:48:11.610Z,3.40
2023-03-17T04:50:39.064Z,3.20
2023-03-17T04:53:06.679Z,4.70
2023-03-17T04:55:33.468Z,3.60
2023-03-17T04:58:00.323Z,4.03
2023-03-17T05:00:27.902Z,3.60
2023-03-17T05:02:54.783Z,3.70
2023-03-17T05:05:21.647Z,3.42
2023-03-17T05:07:48.404Z,3.20
2023-03-17T05:10:15.248Z,3.10
2023-03-17T05:12:41.974Z,3.20
2023-03-17T05:15:09.999Z,3.10
2023-03-17T05:17:36.903Z,3.20
2023-03-17T05:20:04.280Z,3.25
2023-03-17T05:22:31.164Z,3.40
2023-03-17T05:25:22.509Z,3.75
2023-03-17T05:27:49.279Z,3.50
2023-03-17T05:30:16.936Z,3.05
2023-03-17T05:32:43.717Z,3.47
2023-03-17T05:35:10.580Z,3.35
2023-03-17T05:37:37.232Z,3.33
2023-03-17T05:40:04.409Z,3.60
2023-03-17T05:42:31.379Z,3.53
2023-03-17T05:44:58.492Z,3.63
2023-03-17T05:47:25.503Z,2.97
2023-03-17T05:49:52.642Z,3.30
2023-03-17T05:52:21.773Z,3.15
2023-03-17T05:54:49.122Z,3.45
2023-03-17T05:57:16.552Z,3.15
2023-03-17T05:59:43.294Z,3.50
2023-03-17T06:02:11.325Z,3.05
2023-03-17T06:04:38.731Z,3.10
2023-03-17T06:07:06.190Z,3.08
2023-03-17T06:09:33.905Z,3.17
2023-03-17T06:12:00.600Z,3.20
2023-03-17T06:14:27.710Z,3.33
2023-03-17T06:16:54.536Z,3.20
2023-03-17T06:19:21.367Z,3.45
2023-03-17T06:21:48.428Z,3.75
2023-03-17T06:24:15.543Z,3.60
2023-03-17T06:26:43.448Z,2.92
2023-03-17T06:29:11.694Z,2.90
2023-03-17T06:31:39.557Z,3.53
2023-03-17T06:34:06.974Z,3.78
2023-03-17T06:36:33.880Z,3.40
2023-03-17T06:39:01.047Z,3.53
2023-03-17T06:41:27.953Z,3.42
2023-03-17T06:43:54.705Z,3.40
2023-03-17T06:46:21.633Z,3.20
2023-03-17T06:48:48.434Z,3.22
2023-03-17T06:51:15.125Z,3.35
2023-03-17T06:53:42.102Z,3.17
2023-03-17T06:56:20.033Z,3.03
2023-03-17T06:58:54.493Z,3.50
2023-03-17T07:01:23.346Z,3.30
2023-03-17T07:03:50.115Z,3.10
2023-03-17T07:06:16.808Z,3.40
2023-03-17T07:08:43.555Z,3.65
2023-03-17T07:11:10.378Z,3.13
2023-03-17T07:13:38.727Z,3.17
2023-03-17T07:16:06.067Z,3.00
2023-03-17T07:18:33.734Z,3.13
2023-03-17T07:21:04.539Z,3.45
2023-03-17T07:23:31.373Z,3.55
2023-03-17T07:25:58.090Z,3.30
2023-03-17T07:28:24.799Z,3.50
2023-03-17T07:30:51.587Z,3.95
2023-03-17T07:33:22.562Z,3.40
2023-03-17T07:35:54.116Z,3.17
2023-03-17T07:38:21.859Z,3.08
2023-03-17T07:40:51.362Z,3.20
2023-03-17T07:43:18.210Z,3.20
2023-03-17T07:45:45.501Z,2.97
2023-03-17T07:48:12.523Z,3.33
2023-03-17T07:50:39.330Z,3.00
2023-03-17T07:53:06.104Z,2.92
2023-03-17T07:55:33.270Z,2.90
2023-03-17T07:58:00.466Z,3.00
2023-03-17T08:00:29.067Z,2.65
2023-03-17T08:03:08.773Z,3.25
2023-03-17T08:05:35.977Z,2.60
2023-03-17T08:08:02.775Z,2.63
2023-03-17T08:10:30.036Z,2.85
2023-03-17T08:12:57.073Z,2.67
2023-03-17T08:15:24.017Z,2.92
2023-03-17T08:17:50.723Z,2.85
2023-03-17T08:20:20.416Z,2.17
2023-03-17T08:22:47.169Z,3.22
2023-03-17T08:25:14.393Z,3.45
2023-03-17T08:27:41.962Z,2.65
2023-03-17T08:30:09.526Z,2.28
2023-03-17T08:32:36.904Z,2.30
2023-03-17T08:35:06.291Z,2.90
2023-03-17T08:37:33.206Z,2.42
2023-03-17T08:40:00.955Z,2.83
2023-03-17T08:42:27.629Z,2.47
2023-03-17T08:44:54.325Z,2.67
2023-03-17T08:47:21.681Z,2.83
2023-03-17T08:49:48.667Z,2.75
2023-03-17T08:52:16.204Z,3.10
2023-03-17T08:54:43.201Z,2.53
2023-03-17T08:57:10.011Z,2.50
2023-03-17T08:59:37.231Z,2.60
2023-03-17T09:02:04.013Z,2.85
2023-03-17T09:04:30.977Z,2.88
2023-03-17T09:07:05.768Z,2.67
2023-03-17T09:09:35.248Z,2.53
2023-03-17T09:12:04.296Z,2.50
2023-03-17T09:14:40.114Z,2.70
2023-03-17T09:17:11.102Z,2.53
2023-03-17T09:19:38.726Z,3.05
2023-03-17T09:22:05.815Z,2.60
2023-03-17T09:24:32.694Z,2.42
2023-03-17T09:27:01.293Z,2.17
2023-03-17T09:29:28.024Z,3.08
2023-03-17T09:31:56.506Z,2.67
2023-03-17T09:34:25.042Z,2.42
2023-03-17T09:36:53.894Z,2.55
2023-03-17T09:39:24.145Z,2.70
2023-03-17T09:42:35.240Z,2.70
2023-03-17T09:45:28.139Z,2.85
2023-03-17T09:50:27.919Z,2.72
2023-03-17T09:52:57.229Z,2.83
2023-03-17T09:55:29.984Z,3.47
2023-03-17T09:57:58.870Z,3.08
2023-03-17T10:00:29.114Z,3.28
2023-03-17T10:02:57.913Z,2.70
2023-03-17T10:05:31.160Z,3.00
2023-03-17T10:08:31.701Z,2.80
2023-03-17T10:11:31.292Z,3.25
2023-03-17T10:14:35.452Z,3.70
2023-03-17T10:17:15.377Z,3.20
2023-03-17T10:20:08.444Z,3.50
2023-03-17T10:22:41.118Z,3.08
2023-03-17T10:25:24.508Z,3.15
2023-03-17T10:28:31.659Z,4.03
2023-03-17T10:31:21.193Z,2.72
2023-03-17T10:33:52.332Z,3.60
2023-03-17T10:36:34.875Z,3.97
2023-03-17T10:39:05.305Z,3.10
2023-03-17T10:41:34.760Z,3.35
2023-03-17T10:44:01.858Z,3.00
2023-03-17T10:46:31.080Z,3.50
2023-03-17T10:49:06.129Z,3.45
2023-03-17T10:51:36.809Z,3.38
2023-03-17T10:54:10.904Z,3.90
2023-03-17T10:56:41.874Z,3.35
2023-03-17T10:59:33.009Z,3.03
2023-03-17T11:02:05.264Z,3.20
2023-03-17T11:04:39.635Z,3.43
2023-03-17T11:07:27.162Z,3.65
2023-03-17T11:10:01.076Z,3.20
2023-03-17T11:12:34.765Z,3.70
2023-03-17T11:15:05.905Z,3.65
2023-03-17T11:17:45.455Z,3.30
2023-03-17T11:20:46.289Z,3.08
2023-03-17T11:23:29.308Z,3.50
2023-03-17T11:26:10.354Z,2.88
2023-03-17T11:28:44.479Z,3.17
2023-03-17T11:31:18.767Z,3.40
2023-03-17T11:34:06.948Z,4.07
2023-03-17T11:36:59.690Z,3.22
2023-03-17T11:39:36.305Z,3.78
2023-03-17T11:42:19.451Z,3.80
2023-03-17T11:44:52.350Z,3.80
2023-03-17T11:47:38.067Z,3.75
2023-03-17T11:50:16.694Z,3.90
2023-03-17T11:53:10.947Z,3.83
2023-03-17T11:56:05.900Z,3.40
2023-03-17T11:58:44.282Z,3.33
2023-03-17T12:01:23.651Z,3.58
2023-03-17T12:04:08.225Z,3.53
2023-03-17T12:06:42.008Z,3.15
2023-03-17T12:09:21.145Z,3.80
2023-03-17T12:11:51.462Z,3.38
2023-03-17T12:14:19.022Z,4.03
2023-03-17T12:16:54.390Z,3.53
2023-03-17T12:19:29.717Z,3.35
2023-03-17T12:22:03.610Z,4.18
2023-03-17T12:24:38.545Z,3.55
2023-03-17T12:27:15.958Z,4.22
2023-03-17T12:30:03.431Z,3.53
2023-03-17T12:32:42.034Z,4.15
2023-03-17T12:35:49.198Z,4.25
2023-03-17T12:38:37.968Z,4.35
2023-03-17T12:41:26.450Z,3.40
2023-03-17T12:44:39.611Z,3.75
2023-03-17T12:47:30.441Z,3.97
2023-03-17T12:50:09.532Z,4.00
2023-03-17T12:52:49.500Z,4.10
2023-03-17T12:55:24.370Z,4.25
2023-03-17T12:58:22.303Z,4.15
2023-03-17T13:01:03.726Z,3.85
2023-03-17T13:03:34.247Z,4.25
2023-03-17T13:06:04.370Z,3.58
2023-03-17T13:08:33.131Z,4.13
2023-03-17T13:11:36.718Z,4.57
2023-03-17T13:14:27.007Z,3.85
2023-03-17T13:17:16.970Z,3.92
2023-03-17T13:20:12.451Z,4.07
2023-03-17T13:22:40.996Z,4.10
2023-03-17T13:25:35.131Z,5.00
2023-03-17T13:28:13.864Z,4.45
2023-03-17T13:30:41.023Z,3.88
2023-03-17T13:33:10.699Z,4.32
2023-03-17T13:35:46.126Z,3.88
2023-03-17T13:39:05.105Z,4.68
2023-03-17T13:42:15.666Z,4.55
2023-03-17T13:45:11.821Z,4.65
2023-03-17T13:47:43.692Z,4.55
2023-03-17T13:50:16.228Z,5.13
2023-03-17T13:52:50.018Z,4.90
2023-03-17T13:55:23.418Z,4.43
2023-03-17T13:58:17.712Z,4.68
2023-03-17T14:00:50.630Z,5.13
2023-03-17T14:03:29.294Z,5.40
2023-03-17T14:05:56.845Z,5.40
2023-03-17T14:08:37.755Z,5.32
2023-03-17T14:11:16.137Z,4.78
2023-03-17T14:13:56.044Z,4.97
2023-03-17T14:16:29.736Z,5.32
2023-03-17T14:19:18.210Z,5.18
2023-03-17T14:21:45.337Z,5.47
2023-03-17T14:24:22.732Z,5.05
2023-03-17T14:26:52.763Z,5.10
2023-03-17T14:29:25.208Z,5.30
2023-03-17T14:32:02.352Z,5.00
2023-03-17T14:34:29.148Z,4.93
2023-03-17T14:37:04.281Z,5.63
2023-03-17T14:39:31.133Z,5.00
2023-03-17T14:42:00.021Z,5.43
2023-03-17T14:44:26.748Z,5.43
2023-03-17T14:47:02.800Z,5.13
2023-03-17T14:49:31.689Z,5.63
2023-03-17T14:51:59.133Z,5.28
2023-03-17T14:54:34.069Z,5.40
2023-03-17T14:57:15.675Z,4.80
2023-03-17T14:59:44.215Z,5.57
2023-03-17T15:02:24.403Z,5.50
2023-03-17T15:05:01.404Z,5.05
2023-03-17T15:07:40.807Z,5.70
2023-03-17T15:10:19.199Z,5.60
2023-03-17T15:12:46.776Z,4.95
2023-03-17T15:15:31.816Z,5.43
2023-03-17T15:18:03.735Z,5.30
2023-03-17T15:20:33.861Z,5.70
2023-03-17T15:23:05.207Z,5.45
2023-03-17T15:25:37.561Z,5.38
2023-03-17T15:28:15.933Z,6.05
2023-03-17T15:30:47.637Z,5.78
2023-03-17T15:33:29.884Z,6.78
2023-03-17T15:36:00.037Z,5.57
2023-03-17T15:38:27.324Z,5.45
2023-03-17T15:40:54.319Z,5.80
2023-03-17T15:43:24.308Z,6.03
2023-03-17T15:46:24.937Z,6.05
2023-03-17T15:48:51.739Z,6.00
2023-03-17T15:51:18.962Z,5.88
2023-03-17T15:53:47.362Z,5.63
2023-03-17T15:56:21.104Z,5.38
2023-03-17T15:58:49.191Z,5.55
2023-03-17T16:01:16.879Z,5.25
2023-03-17T16:03:47.754Z,5.68
2023-03-17T16:06:21.540Z,4.88
2023-03-17T16:08:49.770Z,5.22
2023-03-17T16:15:38.713Z,5.63
2023-03-17T16:18:10.306Z,5.82
2023-03-17T16:20:46.204Z,5.30
2023-03-17T16:23:23.129Z,5.70
2023-03-17T16:25:51.656Z,5.60
2023-03-17T16:28:21.588Z,5.65
2023-03-17T16:30:49.978Z,5.80
2023-03-17T16:33:38.958Z,5.95
2023-03-17T16:36:06.027Z,4.63
2023-03-17T16:38:33.829Z,6.18
2023-03-17T16:41:14.748Z,4.85
2023-03-17T16:43:44.345Z,4.63
2023-03-17T16:46:12.388Z,4.85
2023-03-17T16:48:39.620Z,5.18
2023-03-17T16:51:06.614Z,5.45
2023-03-17T16:53:33.392Z,5.05
2023-03-17T16:56:00.324Z,5.88
2023-03-17T16:58:33.942Z,5.75
2023-03-17T17:01:11.293Z,5.22
2023-03-17T17:03:38.190Z,5.43
2023-03-17T17:06:06.950Z,4.65
2023-03-17T17:08:33.696Z,5.45
2023-03-17T17:11:00.490Z,4.90
2023-03-17T17:13:28.869Z,5.20
2023-03-17T17:15:56.202Z,5.28
2023-03-17T17:18:24.566Z,6.15
2023-03-17T17:20:53.080Z,6.50
2023-03-17T17:23:23.077Z,5.85
2023-03-17T17:25:50.425Z,6.50
2023-03-17T17:28:22.198Z,5.80
2023-03-17T17:30:50.686Z,5.97
2023-03-17T17:33:18.401Z,6.20
2023-03-17T17:35:45.417Z,6.85
2023-03-17T17:38:26.476Z,6.82
2023-03-17T17:40:57.721Z,5.63
2023-03-17T17:43:25.118Z,5.78
2023-03-17T17:45:52.337Z,6.38
2023-03-17T17:48:22.551Z,6.32
2023-03-17T17:50:50.680Z,5.50
2023-03-17T17:53:18.043Z,5.32
2023-03-17T17:55:47.112Z,5.93
2023-03-17T17:58:16.301Z,6.18
2023-03-17T18:00:43.393Z,6.45
2023-03-17T18:03:10.523Z,7.05
2023-03-17T18:05:37.375Z,7.25
2023-03-17T18:08:04.722Z,8.20
2023-03-17T18:10:31.940Z,7.43
2023-03-17T18:12:59.331Z,7.47
2023-03-17T18:15:27.404Z,6.72
2023-03-17T18:17:54.643Z,7.20
2023-03-17T18:20:23.015Z,6.80
2023-03-17T18:22:51.263Z,7.20
2023-03-17T18:25:19.380Z,6.35
2023-03-17T18:27:47.344Z,6.55
2023-03-17T18:30:24.136Z,6.88
2023-03-17T18:32:55.166Z,7.65
2023-03-17T18:35:24.294Z,7.45
2023-03-17T18:37:51.792Z,6.90
2023-03-17T18:40:19.678Z,6.80
2023-03-17T18:42:46.889Z,6.75
2023-03-17T18:45:14.020Z,6.20
2023-03-17T18:47:41.909Z,6.22
2023-03-17T18:50:11.369Z,6.18
2023-03-17T18:52:40.422Z,7.40
2023-03-17T18:55:08.890Z,6.72
2023-03-17T18:57:35.835Z,6.70
2023-03-17T19:00:02.721Z,6.30
2023-03-17T19:02:29.861Z,7.10
2023-03-17T19:04:56.893Z,7.10
2023-03-17T19:07:23.658Z,6.55
2023-03-17T19:09:50.890Z,7.60
2023-03-17T19:12:17.652Z,7.32
2023-03-17T19:14:44.546Z,7.18
2023-03-17T19:17:11.283Z,6.88
2023-03-17T19:19:38.526Z,6.65
2023-03-17T19:22:06.200Z,6.68
2023-03-17T19:24:35.330Z,6.28
2023-03-17T19:27:02.032Z,6.55
2023-03-17T19:29:28.818Z,6.43
2023-03-17T19:31:55.682Z,6.63
2023-03-17T19:34:23.284Z,6.30
2023-03-17T19:36:50.541Z,6.18
2023-03-17T19:39:17.605Z,5.68
2023-03-17T19:41:44.716Z,6.30
2023-03-17T19:44:14.622Z,6.15
2023-03-17T19:46:41.317Z,6.18
2023-03-17T19:49:08.204Z,6.32
2023-03-17T19:51:34.969Z,6.13
2023-03-17T19:54:01.800Z,6.20
2023-03-17T19:56:28.682Z,6.07
2023-03-17T19:58:55.515Z,6.15
2023-03-17T20:01:22.966Z,5.82
2023-03-17T20:03:49.779Z,5.78
2023-03-17T20:06:16.835Z,6.10
2023-03-17T20:08:44.564Z,6.10
2023-03-17T20:11:13.107Z,5.20
2023-03-17T20:13:40.899Z,6.38
2023-03-17T20:16:08.546Z,6.30
2023-03-17T20:18:36.053Z,5.70
2023-03-17T20:21:05.607Z,6.18
2023-03-17T20:23:33.332Z,6.15
2023-03-17T20:26:01.235Z,5.70
2023-03-17T20:28:29.988Z,5.75
2023-03-17T20:31:01.089Z,6.13
2023-03-17T20:33:27.883Z,6.88
2023-03-17T20:35:54.681Z,6.68
2023-03-17T20:38:21.489Z,7.07
2023-03-17T20:40:48.420Z,7.18
2023-03-17T20:43:16.067Z,7.50
2023-03-17T20:45:42.944Z,6.90
2023-03-17T20:48:11.245Z,6.28
2023-03-17T20:50:39.300Z,7.13
2023-03-17T20:53:06.226Z,6.43
2023-03-17T20:55:33.202Z,7.00
2023-03-17T20:58:01.731Z,4.95
2023-03-17T21:00:30.165Z,5.40
2023-03-17T21:02:57.510Z,5.60
2023-03-17T21:05:26.330Z,5.53
2023-03-17T21:07:53.499Z,5.43
2023-03-17T21:10:21.033Z,5.18
2023-03-17T21:12:47.818Z,5.10
2023-03-17T21:15:15.119Z,5.45
2023-03-17T21:17:42.501Z,6.03
2023-03-17T21:20:12.215Z,5.50
2023-03-17T21:22:40.107Z,4.70
2023-03-17T21:25:08.910Z,5.75
2023-03-17T21:27:39.686Z,5.30
2023-03-17T21:30:09.775Z,5.00
2023-03-17T21:32:36.625Z,4.75
2023-03-17T21:35:03.740Z,4.20
2023-03-17T21:37:30.686Z,4.45
2023-03-17T21:39:58.008Z,4.07
2023-03-17T21:42:25.281Z,5.03
2023-03-17T21:44:52.283Z,4.30
2023-03-17T21:47:19.679Z,3.80
2023-03-17T21:49:46.819Z,4.53
2023-03-17T21:52:14.958Z,4.13
2023-03-17T21:54:41.969Z,3.80
2023-03-17T21:57:09.305Z,3.65
2023-03-17T21:59:36.194Z,3.92
2023-03-17T22:02:03.542Z,3.75
2023-03-17T22:04:30.325Z,3.30
2023-03-17T22:06:58.855Z,3.97
2023-03-17T22:09:26.319Z,3.75
2023-03-17T22:11:53.093Z,2.92
2023-03-17T22:14:20.661Z,3.85
2023-03-17T22:16:49.205Z,2.53
2023-03-17T22:19:17.808Z,3.00
2023-03-17T22:21:46.064Z,2.45
2023-03-17T22:24:12.891Z,3.05
2023-03-17T22:26:39.716Z,2.40
2023-03-17T22:29:06.498Z,2.65
2023-03-17T22:31:34.695Z,2.70
2023-03-17T22:34:02.205Z,2.53
2023-03-17T22:36:30.014Z,2.60
2023-03-17T22:38:58.377Z,2.97
2023-03-17T22:41:27.643Z,3.10
2023-03-17T22:43:54.520Z,2.83
2023-03-17T22:46:22.059Z,2.80
2023-03-17T22:48:49.925Z,3.38
2023-03-17T22:51:20.036Z,2.97
2023-03-17T22:53:47.601Z,3.03
2023-03-17T22:56:17.487Z,2.50
2023-03-17T22:58:45.101Z,3.60
2023-03-17T23:01:13.421Z,2.75
2023-03-17T23:03:40.530Z,2.90
2023-03-17T23:06:08.609Z,3.10
2023-03-17T23:08:39.673Z,2.90
2023-03-17T23:11:10.609Z,3.10
2023-03-17T23:13:38.185Z,2.80
2023-03-17T23:16:06.467Z,2.95
2023-03-17T23:18:33.939Z,3.13
2023-03-17T23:21:01.819Z,3.35
2023-03-17T23:23:28.950Z,2.85
2023-03-17T23:25:56.197Z,2.88
2023-03-17T23:28:23.325Z,2.85
2023-03-17T23:30:51.927Z,2.95
2023-03-17T23:33:21.501Z,2.90
2023-03-17T23:35:50.262Z,2.92
2023-03-17T23:38:21.965Z,3.22
2023-03-17T23:40:49.682Z,3.07
2023-03-17T23:43:16.657Z,2.63
2023-03-17T23:45:43.615Z,3.38
2023-03-17T23:48:11.212Z,2.95
2023-03-17T23:50:39.619Z,2.90
2023-03-17T23:53:06.377Z,3.40
2023-03-17T23:55:33.266Z,3.33
2023-03-17T23:58:01.225Z,3.20
